createdAt,value
2019-01-29T00:01:28.872Z,156.60
2019-01-29T00:04:13.689Z,159.73
2019-01-29T00:06:58.957Z,163.37
2019-01-29T00:09:44.112Z,163.57
2019-01-29T00:12:29.612Z,171.93
2019-01-29T00:15:14.959Z,169.00
2019-01-29T00:18:00.089Z,170.43
2019-01-29T00:20:45.331Z,163.47
2019-01-29T00:23:30.509Z,153.57
2019-01-29T00:26:16.089Z,155.90
2019-01-29T00:29:01.573Z,149.80
2019-01-29T00:31:46.598Z,153.40
2019-01-29T00:34:31.320Z,152.60
2019-01-29T00:37:16.508Z,162.00
2019-01-29T00:40:01.204Z,157.40
2019-01-29T00:42:46.599Z,155.77
2019-01-29T00:45:31.587Z,162.30
2019-01-29T00:48:16.449Z,151.97
2019-01-29T00:51:01.764Z,157.03
2019-01-29T00:53:46.432Z,154.47
2019-01-29T00:56:31.249Z,148.30
2019-01-29T00:59:16.659Z,161.83
2019-01-29T01:02:01.731Z,157.03
2019-01-29T01:04:46.911Z,153.40
2019-01-29T01:07:31.795Z,153.43
2019-01-29T01:10:19.494Z,158.73
2019-01-29T01:13:04.291Z,161.40
2019-01-29T01:15:49.047Z,158.47
2019-01-29T01:18:34.090Z,146.90
2019-01-29T01:21:18.797Z,163.23
2019-01-29T01:24:03.447Z,151.10
2019-01-29T01:26:48.247Z,158.17
2019-01-29T01:29:33.707Z,149.47
2019-01-29T01:32:19.455Z,149.07
2019-01-29T01:35:04.463Z,140.97
2019-01-29T01:37:49.481Z,149.80
2019-01-29T01:40:34.346Z,152.97
2019-01-29T01:43:19.682Z,151.90
2019-01-29T01:46:04.694Z,149.33
2019-01-29T01:48:49.925Z,146.00
2019-01-29T01:51:34.782Z,146.97
2019-01-29T01:54:20.106Z,144.80
2019-01-29T01:57:05.723Z,145.97
2019-01-29T01:59:51.017Z,155.60
2019-01-29T02:02:35.979Z,164.80
2019-01-29T02:05:21.025Z,156.37
2019-01-29T02:08:06.227Z,160.27
2019-01-29T02:10:51.353Z,158.70
2019-01-29T02:13:36.278Z,171.80
2019-01-29T02:16:21.581Z,160.27
2019-01-29T02:19:06.602Z,155.10
2019-01-29T02:21:51.688Z,160.07
2019-01-29T02:24:36.940Z,159.37
2019-01-29T02:27:21.719Z,153.70
2019-01-29T02:30:15.602Z,161.90
2019-01-29T02:33:00.433Z,158.17
2019-01-29T02:35:45.206Z,162.37
2019-01-29T02:38:29.944Z,158.03
2019-01-29T02:41:17.610Z,160.93
2019-01-29T02:44:02.404Z,154.87
2019-01-29T02:46:47.112Z,152.13
2019-01-29T02:49:32.475Z,153.57
2019-01-29T02:52:17.247Z,154.67
2019-01-29T02:55:02.830Z,157.27
2019-01-29T02:57:47.749Z,162.60
2019-01-29T03:00:33.213Z,162.40
2019-01-29T03:03:18.608Z,151.83
2019-01-29T03:06:03.526Z,161.73
2019-01-29T03:08:48.808Z,146.73
2019-01-29T03:11:34.077Z,158.43
2019-01-29T03:14:19.145Z,162.67
2019-01-29T03:17:04.124Z,159.90
2019-01-29T03:19:48.819Z,147.47
2019-01-29T03:22:34.172Z,159.43
2019-01-29T03:25:19.136Z,150.23
2019-01-29T03:28:04.266Z,155.30
2019-01-29T03:30:49.037Z,152.70
2019-01-29T03:33:33.799Z,155.23
2019-01-29T03:36:18.482Z,161.97
2019-01-29T03:39:06.965Z,142.17
2019-01-29T03:41:52.338Z,150.93
2019-01-29T03:44:37.641Z,150.37
2019-01-29T03:47:23.096Z,173.33
2019-01-29T03:50:11.161Z,168.30
2019-01-29T03:52:56.192Z,157.90
2019-01-29T03:55:41.283Z,150.97
2019-01-29T03:58:26.000Z,150.40
2019-01-29T04:01:11.843Z,157.57
2019-01-29T04:03:56.551Z,150.33
2019-01-29T04:06:41.852Z,153.70
2019-01-29T04:09:27.323Z,154.40
2019-01-29T04:12:12.485Z,147.50
2019-01-29T04:14:57.453Z,160.97
2019-01-29T04:17:42.622Z,154.57
2019-01-29T04:20:27.359Z,161.97
2019-01-29T04:23:12.043Z,161.03
2019-01-29T04:25:57.276Z,167.57
2019-01-29T04:28:43.062Z,162.20
2019-01-29T04:31:27.979Z,169.37
2019-01-29T04:34:13.565Z,165.30
2019-01-29T04:36:58.720Z,150.77
2019-01-29T04:39:43.670Z,154.27
2019-01-29T04:42:28.391Z,147.53
2019-01-29T04:45:15.745Z,140.97
2019-01-29T04:48:01.083Z,139.70
2019-01-29T04:50:46.280Z,144.17
2019-01-29T04:53:31.148Z,137.13
2019-01-29T04:56:16.435Z,146.67
2019-01-29T04:59:01.681Z,141.53
2019-01-29T05:01:47.127Z,143.00
2019-01-29T05:04:32.336Z,143.77
2019-01-29T05:07:17.179Z,144.73
2019-01-29T05:10:05.749Z,140.47
2019-01-29T05:12:50.740Z,134.60
2019-01-29T05:15:35.882Z,148.93
2019-01-29T05:18:21.030Z,133.77
2019-01-29T05:21:06.587Z,146.87
2019-01-29T05:23:51.554Z,135.07
2019-01-29T05:26:37.543Z,134.70
2019-01-29T05:29:22.479Z,140.77
2019-01-29T05:32:07.959Z,131.23
2019-01-29T05:34:53.031Z,144.53
2019-01-29T05:37:37.998Z,134.00
2019-01-29T05:40:43.013Z,135.10
2019-01-29T05:43:28.182Z,145.40
2019-01-29T05:46:13.858Z,131.90
2019-01-29T05:48:58.715Z,141.17
2019-01-29T05:51:43.843Z,143.37
2019-01-29T05:54:28.615Z,140.40
2019-01-29T05:57:13.900Z,139.33
2019-01-29T05:59:59.179Z,133.73
2019-01-29T06:02:44.512Z,143.83
2019-01-29T06:05:29.797Z,145.13
2019-01-29T06:08:14.923Z,140.30
2019-01-29T06:10:59.669Z,140.63
2019-01-29T06:13:44.936Z,133.57
2019-01-29T06:16:30.060Z,134.83
2019-01-29T06:19:15.266Z,135.07
2019-01-29T06:22:00.157Z,135.50
2019-01-29T06:24:45.550Z,139.73
2019-01-29T06:27:31.051Z,148.90
2019-01-29T06:30:18.234Z,145.87
2019-01-29T06:33:03.286Z,149.67
2019-01-29T06:35:48.362Z,152.57
2019-01-29T06:38:56.175Z,152.97
2019-01-29T06:41:41.385Z,168.13
2019-01-29T06:44:26.761Z,164.27
2019-01-29T06:47:11.978Z,170.70
2019-01-29T06:49:57.011Z,172.57
2019-01-29T06:52:41.748Z,170.80
2019-01-29T06:55:26.976Z,188.50
2019-01-29T06:58:12.752Z,187.43
2019-01-29T07:00:57.879Z,180.40
2019-01-29T07:03:43.070Z,186.07
2019-01-29T07:06:27.781Z,185.33
2019-01-29T07:09:12.915Z,190.30
2019-01-29T07:11:59.482Z,195.20
2019-01-29T07:14:44.512Z,190.87
2019-01-29T07:17:30.535Z,184.73
2019-01-29T07:20:15.807Z,173.13
2019-01-29T07:23:01.006Z,187.07
2019-01-29T07:25:46.878Z,191.27
2019-01-29T07:28:31.679Z,185.53
2019-01-29T07:31:16.660Z,183.50
2019-01-29T07:34:01.875Z,181.80
2019-01-29T07:36:47.308Z,183.93
2019-01-29T07:39:32.460Z,188.80
2019-01-29T07:42:37.379Z,190.87
2019-01-29T07:45:22.548Z,182.63
2019-01-29T07:48:07.756Z,178.30
2019-01-29T07:50:53.122Z,186.63
2019-01-29T07:53:38.517Z,184.27
2019-01-29T07:56:23.777Z,193.20
2019-01-29T07:59:09.122Z,207.77
2019-01-29T08:01:54.045Z,225.70
2019-01-29T08:04:39.161Z,230.53
2019-01-29T08:07:24.333Z,207.23
2019-01-29T08:10:14.246Z,211.17
2019-01-29T08:12:59.232Z,196.57
2019-01-29T08:15:44.549Z,220.03
2019-01-29T08:18:29.671Z,197.37
2019-01-29T08:21:15.088Z,208.97
2019-01-29T08:24:00.511Z,217.80
2019-01-29T08:26:45.480Z,221.70
2019-01-29T08:29:30.710Z,220.77
2019-01-29T08:32:16.482Z,201.47
2019-01-29T08:35:01.892Z,198.10
2019-01-29T08:37:46.758Z,198.33
2019-01-29T08:40:31.644Z,219.90
2019-01-29T08:43:16.766Z,234.47
2019-01-29T08:46:02.121Z,238.70
2019-01-29T08:48:47.357Z,222.57
2019-01-29T08:51:32.643Z,231.27
2019-01-29T08:54:17.508Z,218.67
2019-01-29T08:57:02.927Z,231.50
2019-01-29T08:59:48.037Z,245.87
2019-01-29T09:02:32.933Z,202.67
2019-01-29T09:05:18.335Z,217.23
2019-01-29T09:08:03.377Z,228.43
2019-01-29T09:10:48.633Z,217.60
2019-01-29T09:13:33.390Z,226.00
2019-01-29T09:16:18.566Z,211.70
2019-01-29T09:19:03.519Z,192.60
2019-01-29T09:21:48.507Z,205.80
2019-01-29T09:24:33.387Z,176.30
2019-01-29T09:27:18.720Z,187.47
2019-01-29T09:30:10.354Z,175.47
2019-01-29T09:32:55.281Z,195.83
2019-01-29T09:35:40.747Z,179.60
2019-01-29T09:38:25.565Z,175.00
2019-01-29T09:41:10.386Z,176.87
2019-01-29T09:43:55.547Z,184.30
2019-01-29T09:46:41.245Z,169.07
2019-01-29T09:49:26.700Z,182.97
2019-01-29T09:52:11.920Z,175.47
2019-01-29T09:54:57.059Z,164.63
2019-01-29T09:57:42.498Z,171.53
2019-01-29T10:00:35.814Z,166.30
2019-01-29T10:03:21.167Z,155.87
2019-01-29T10:06:06.198Z,151.43
2019-01-29T10:08:51.389Z,157.57
2019-01-29T10:11:36.475Z,133.97
2019-01-29T10:14:21.168Z,125.37
2019-01-29T10:17:06.663Z,124.07
2019-01-29T10:19:51.776Z,119.93
2019-01-29T10:22:37.120Z,110.40
2019-01-29T10:25:22.457Z,110.63
2019-01-29T10:28:07.782Z,115.57
2019-01-29T10:30:52.790Z,107.50
2019-01-29T10:33:38.288Z,93.53
2019-01-29T10:36:23.398Z,101.30
2019-01-29T10:39:10.082Z,97.47
2019-01-29T10:41:55.746Z,96.57
2019-01-29T10:44:40.706Z,91.03
2019-01-29T10:47:25.422Z,91.50
2019-01-29T10:50:14.390Z,89.87
2019-01-29T10:52:59.476Z,102.73
2019-01-29T10:55:47.425Z,93.87
2019-01-29T10:58:31.414Z,96.80
2019-01-29T11:01:16.189Z,84.40
2019-01-29T11:04:01.515Z,82.43
2019-01-29T11:06:46.208Z,94.23
2019-01-29T11:09:30.993Z,87.07
2019-01-29T11:12:15.936Z,84.33
2019-01-29T11:15:00.967Z,88.83
2019-01-29T11:17:46.248Z,86.80
2019-01-29T11:20:31.472Z,73.40
2019-01-29T11:23:16.634Z,85.83
2019-01-29T11:26:01.500Z,81.67
2019-01-29T11:28:46.822Z,82.47
2019-01-29T11:31:31.754Z,75.60
2019-01-29T11:34:16.974Z,81.63
2019-01-29T11:37:02.022Z,76.07
2019-01-29T11:39:47.250Z,75.90
2019-01-29T11:42:32.242Z,68.70
2019-01-29T11:45:26.402Z,55.63
2019-01-29T11:48:11.347Z,78.60
2019-01-29T11:50:56.427Z,71.37
2019-01-29T11:53:41.797Z,78.17
2019-01-29T11:56:27.007Z,53.87
2019-01-29T11:59:12.477Z,67.43
2019-01-29T12:01:57.570Z,61.67
2019-01-29T12:04:43.240Z,65.53
2019-01-29T12:07:28.090Z,59.97
2019-01-29T12:10:13.505Z,51.23
2019-01-29T12:12:58.479Z,50.33
2019-01-29T12:15:43.721Z,49.33
2019-01-29T12:18:29.228Z,45.57
2019-01-29T12:21:14.601Z,51.40
2019-01-29T12:23:59.755Z,40.70
2019-01-29T12:26:45.022Z,45.37
2019-01-29T12:29:30.466Z,36.27
2019-01-29T12:32:15.991Z,34.63
2019-01-29T12:35:01.279Z,39.30
2019-01-29T12:37:46.370Z,38.73
2019-01-29T12:40:31.464Z,37.13
2019-01-29T12:43:16.736Z,40.37
2019-01-29T12:46:01.398Z,44.47
2019-01-29T12:48:46.193Z,35.40
2019-01-29T12:51:33.031Z,38.90
2019-01-29T12:54:18.329Z,30.93
2019-01-29T12:57:06.283Z,32.40
2019-01-29T12:59:56.017Z,26.93
2019-01-29T13:02:41.598Z,26.30
2019-01-29T13:05:26.601Z,30.33
2019-01-29T13:08:13.953Z,34.60
2019-01-29T13:10:58.729Z,33.70
2019-01-29T13:13:44.001Z,28.70
2019-01-29T13:16:29.324Z,27.00
2019-01-29T13:19:14.440Z,30.10
2019-01-29T13:21:59.648Z,29.90
2019-01-29T13:24:45.044Z,31.13
2019-01-29T13:27:30.866Z,33.33
2019-01-29T13:30:28.846Z,31.30
2019-01-29T13:33:14.432Z,30.03
2019-01-29T13:35:59.181Z,32.47
2019-01-29T13:38:44.088Z,28.97
2019-01-29T13:41:28.892Z,36.73
2019-01-29T13:44:14.290Z,36.57
2019-01-29T13:46:59.218Z,34.57
2019-01-29T13:49:44.106Z,42.93
2019-01-29T13:52:29.535Z,41.90
2019-01-29T13:55:17.794Z,46.47
2019-01-29T13:58:04.593Z,44.20
2019-01-29T14:00:49.574Z,40.27
2019-01-29T14:03:34.769Z,54.03
2019-01-29T14:06:20.059Z,44.07
2019-01-29T14:09:06.657Z,49.67
2019-01-29T14:11:51.951Z,53.10
2019-01-29T14:14:37.487Z,39.67
2019-01-29T14:17:22.762Z,53.97
2019-01-29T14:20:11.892Z,47.60
2019-01-29T14:22:56.822Z,46.53
2019-01-29T14:25:42.120Z,52.80
2019-01-29T14:28:27.563Z,56.23
2019-01-29T14:31:12.778Z,67.30
2019-01-29T14:33:57.517Z,55.90
2019-01-29T14:36:43.292Z,66.93
2019-01-29T14:39:28.834Z,80.33
2019-01-29T14:42:14.165Z,69.87
2019-01-29T14:44:59.158Z,60.77
2019-01-29T14:47:44.377Z,61.50
2019-01-29T14:50:29.785Z,57.10
2019-01-29T14:53:15.171Z,60.00
2019-01-29T14:56:00.389Z,49.03
2019-01-29T14:58:45.546Z,48.40
2019-01-29T15:01:50.919Z,52.17
2019-01-29T15:04:35.860Z,53.13
2019-01-29T15:07:29.885Z,63.60
2019-01-29T15:10:12.236Z,62.70
2019-01-29T15:12:57.429Z,60.03
2019-01-29T15:15:47.250Z,51.13
2019-01-29T15:18:34.381Z,58.07
2019-01-29T15:21:19.410Z,52.20
2019-01-29T15:24:04.884Z,55.70
2019-01-29T15:26:49.824Z,48.23
2019-01-29T15:29:34.976Z,49.73
2019-01-29T15:32:20.172Z,56.67
2019-01-29T15:35:07.408Z,47.90
2019-01-29T15:37:52.336Z,56.50
2019-01-29T15:40:40.265Z,51.30
2019-01-29T15:43:25.414Z,44.60
2019-01-29T15:46:11.049Z,54.87
2019-01-29T15:48:56.573Z,68.37
2019-01-29T15:51:41.710Z,56.87
2019-01-29T15:54:27.134Z,76.97
2019-01-29T15:57:14.365Z,86.77
2019-01-29T16:00:02.683Z,80.20
2019-01-29T16:02:47.770Z,81.70
2019-01-29T16:05:35.495Z,61.80
2019-01-29T16:08:20.739Z,74.67
2019-01-29T16:11:05.813Z,73.30
2019-01-29T16:13:51.065Z,64.03
2019-01-29T16:16:42.771Z,48.10
2019-01-29T16:19:28.327Z,57.97
2019-01-29T16:22:23.982Z,56.43
2019-01-29T16:25:10.197Z,49.27
2019-01-29T16:27:55.181Z,73.30
2019-01-29T16:30:40.425Z,122.80
2019-01-29T16:33:26.058Z,81.80
2019-01-29T16:36:13.366Z,59.47
2019-01-29T16:38:58.272Z,60.47
2019-01-29T16:41:44.052Z,66.80
2019-01-29T16:44:29.511Z,70.97
2019-01-29T16:47:14.644Z,70.90
2019-01-29T16:50:00.210Z,69.27
2019-01-29T16:52:45.196Z,56.77
2019-01-29T16:55:31.790Z,71.60
2019-01-29T16:58:37.243Z,79.23
2019-01-29T17:01:22.194Z,92.83
2019-01-29T17:04:07.592Z,57.60
2019-01-29T17:06:52.407Z,58.37
2019-01-29T17:09:37.919Z,74.77
2019-01-29T17:12:23.747Z,75.50
2019-01-29T17:15:12.791Z,69.73
2019-01-29T17:17:58.886Z,65.77
2019-01-29T17:20:46.005Z,116.63
2019-01-29T17:23:32.156Z,73.87
2019-01-29T17:26:18.080Z,68.67
2019-01-29T17:29:03.811Z,81.70
2019-01-29T17:31:56.978Z,63.30
2019-01-29T17:34:41.135Z,66.72
2019-01-29T17:37:26.296Z,65.20
2019-01-29T17:40:15.706Z,66.50
2019-01-29T17:43:01.150Z,88.57
2019-01-29T17:45:49.061Z,74.63
2019-01-29T17:48:34.154Z,69.27
2019-01-29T17:51:19.207Z,79.73
2019-01-29T17:54:07.296Z,70.80
2019-01-29T17:56:52.600Z,54.03
2019-01-29T17:59:40.830Z,52.77
2019-01-29T18:02:25.755Z,51.77
2019-01-29T18:05:10.955Z,61.97
2019-01-29T18:07:58.767Z,63.97
2019-01-29T18:10:44.217Z,57.73
2019-01-29T18:13:29.479Z,59.40
2019-01-29T18:16:16.658Z,71.63
2019-01-29T18:19:01.655Z,85.13
2019-01-29T18:21:56.709Z,61.27
2019-01-29T18:24:37.530Z,72.53
2019-01-29T18:27:22.568Z,74.47
2019-01-29T18:30:23.734Z,149.80
2019-01-29T18:33:08.869Z,118.47
2019-01-29T18:35:54.388Z,86.67
2019-01-29T18:38:39.859Z,100.67
2019-01-29T18:41:24.892Z,80.63
2019-01-29T18:44:10.824Z,81.83
2019-01-29T18:46:55.942Z,80.77
2019-01-29T18:49:41.232Z,69.10
2019-01-29T18:52:26.304Z,38.33
2019-01-29T18:55:11.878Z,36.40
2019-01-29T18:57:57.145Z,37.37
2019-01-29T19:00:42.133Z,42.20
2019-01-29T19:03:27.098Z,39.07
2019-01-29T19:06:12.125Z,44.07
2019-01-29T19:08:57.292Z,40.20
2019-01-29T19:11:42.677Z,55.90
2019-01-29T19:14:27.946Z,45.77
2019-01-29T19:17:12.939Z,38.47
2019-01-29T19:19:57.913Z,45.93
2019-01-29T19:22:42.807Z,41.13
2019-01-29T19:25:27.936Z,48.13
2019-01-29T19:28:21.649Z,46.00
2019-01-29T19:30:59.541Z,37.93
2019-01-29T19:33:44.957Z,40.37
2019-01-29T19:36:31.374Z,35.83
2019-01-29T19:39:16.534Z,39.53
2019-01-29T19:42:01.811Z,31.97
2019-01-29T19:44:47.057Z,33.60
2019-01-29T19:47:32.390Z,33.60
2019-01-29T19:50:20.940Z,34.73
2019-01-29T19:53:05.844Z,38.27
2019-01-29T19:55:51.055Z,33.67
2019-01-29T19:58:36.349Z,29.73
2019-01-29T20:01:21.564Z,36.87
2019-01-29T20:04:06.863Z,32.80
2019-01-29T20:06:51.845Z,34.53
2019-01-29T20:09:36.761Z,37.03
2019-01-29T20:12:21.549Z,36.80
2019-01-29T20:15:13.152Z,35.67
2019-01-29T20:17:58.250Z,36.43
2019-01-29T20:20:43.759Z,37.47
2019-01-29T20:23:29.029Z,34.87
2019-01-29T20:26:14.117Z,35.57
2019-01-29T20:28:58.937Z,36.47
2019-01-29T20:31:44.341Z,36.53
2019-01-29T20:34:29.513Z,115.60
2019-01-29T20:37:14.766Z,43.87
2019-01-29T20:40:00.260Z,32.77
2019-01-29T20:42:45.473Z,44.33
2019-01-29T20:45:30.916Z,35.50
2019-01-29T20:48:15.957Z,36.03
2019-01-29T20:51:01.476Z,33.07
2019-01-29T20:53:46.590Z,38.67
2019-01-29T20:56:31.850Z,33.50
2019-01-29T20:59:17.018Z,29.90
2019-01-29T21:02:03.658Z,34.40
2019-01-29T21:04:48.450Z,30.93
2019-01-29T21:07:33.784Z,30.57
2019-01-29T21:10:20.560Z,32.90
2019-01-29T21:13:05.894Z,40.43
2019-01-29T21:15:50.809Z,33.57
2019-01-29T21:18:35.621Z,29.87
2019-01-29T21:21:20.627Z,34.27
2019-01-29T21:24:05.889Z,34.03
2019-01-29T21:26:51.080Z,31.80
2019-01-29T21:29:36.347Z,39.67
2019-01-29T21:32:21.915Z,61.73
2019-01-29T21:35:06.559Z,49.97
2019-01-29T21:37:51.556Z,49.23
2019-01-29T21:40:36.728Z,63.73
2019-01-29T21:43:22.066Z,45.03
2019-01-29T21:46:07.710Z,60.53
2019-01-29T21:48:52.752Z,61.70
2019-01-29T21:51:38.114Z,52.97
2019-01-29T21:54:23.305Z,43.53
2019-01-29T21:57:08.682Z,42.70
2019-01-29T21:59:54.267Z,37.60
2019-01-29T22:02:39.765Z,35.13
2019-01-29T22:05:24.695Z,34.43
2019-01-29T22:08:09.653Z,37.63
2019-01-29T22:10:55.357Z,36.77
2019-01-29T22:13:40.731Z,33.80
2019-01-29T22:16:26.632Z,33.40
2019-01-29T22:19:12.855Z,38.57
2019-01-29T22:21:58.047Z,35.10
2019-01-29T22:24:43.537Z,107.40
2019-01-29T22:27:28.883Z,83.10
2019-01-29T22:30:28.821Z,37.07
2019-01-29T22:33:14.837Z,40.50
2019-01-29T22:36:00.232Z,36.43
2019-01-29T22:38:45.790Z,40.93
2019-01-29T22:41:31.016Z,42.50
2019-01-29T22:44:16.290Z,42.17
2019-01-29T22:47:01.155Z,41.73
2019-01-29T22:49:46.248Z,40.90
2019-01-29T22:52:31.228Z,40.37
2019-01-29T22:55:16.414Z,47.00
2019-01-29T22:58:01.744Z,43.00
2019-01-29T23:00:55.128Z,46.23
2019-01-29T23:03:42.110Z,48.83
2019-01-29T23:06:34.156Z,40.73
2019-01-29T23:09:19.064Z,47.47
2019-01-29T23:12:04.364Z,39.83
2019-01-29T23:14:49.921Z,45.33
2019-01-29T23:17:34.980Z,41.87
2019-01-29T23:20:20.025Z,40.63
2019-01-29T23:23:04.836Z,42.57
2019-01-29T23:25:49.964Z,41.47
2019-01-29T23:28:35.234Z,46.20
2019-01-29T23:31:20.859Z,41.37
2019-01-29T23:34:05.925Z,44.30
2019-01-29T23:36:51.087Z,45.60
2019-01-29T23:39:35.932Z,51.67
2019-01-29T23:42:21.066Z,47.37
2019-01-29T23:45:09.524Z,45.47
2019-01-29T23:48:00.354Z,43.33
2019-01-29T23:50:45.422Z,44.80
2019-01-29T23:53:30.306Z,157.40
2019-01-29T23:56:15.464Z,48.83
2019-01-29T23:59:00.796Z,42.93
